sensor_id;sensor_type;location;lat;lon;timestamp;pressure;altitude;pressure_sealevel;temperature;humidity
29417;BME280;28421;51.030;4.006;2022-11-20T06:02:29;101188.34;;;6.54;71.01
29417;BME280;28421;51.030;4.006;2022-11-20T06:04:55;101184.25;;;6.50;70.99
29417;BME280;28421;51.030;4.006;2022-11-20T06:07:20;101179.63;;;6.52;70.94
29417;BME280;28421;51.030;4.006;2022-11-20T06:09:46;101183.06;;;6.23;71.97
29417;BME280;28421;51.030;4.006;2022-11-20T06:12:11;101188.75;;;6.50;71.58
29417;BME280;28421;51.030;4.006;2022-11-20T06:14:36;101180.06;;;6.57;71.53
29417;BME280;28421;51.030;4.006;2022-11-20T06:17:02;101173.03;;;6.56;71.42
29417;BME280;28421;51.030;4.006;2022-11-20T06:19:27;101159.69;;;6.56;71.73
29417;BME280;28421;51.030;4.006;2022-11-20T06:21:52;101171.19;;;6.66;72.16
29417;BME280;28421;51.030;4.006;2022-11-20T06:24:18;101166.16;;;6.73;71.36
29417;BME280;28421;51.030;4.006;2022-11-20T06:26:44;101162.91;;;6.60;71.70
29417;BME280;28421;51.030;4.006;2022-11-20T06:29:09;101168.84;;;6.73;71.62
29417;BME280;28421;51.030;4.006;2022-11-20T06:31:35;101181.34;;;6.82;71.56
29417;BME280;28421;51.030;4.006;2022-11-20T06:34:04;101180.66;;;6.90;71.38
29417;BME280;28421;51.030;4.006;2022-11-20T06:36:31;101172.38;;;6.93;71.45
29417;BME280;28421;51.030;4.006;2022-11-20T06:38:57;101161.78;;;6.91;71.39
29417;BME280;28421;51.030;4.006;2022-11-20T06:41:22;101173.34;;;7.02;71.20
29417;BME280;28421;51.030;4.006;2022-11-20T06:43:48;101156.59;;;7.00;70.98
29417;BME280;28421;51.030;4.006;2022-11-20T06:46:15;101154.75;;;7.00;71.29
29417;BME280;28421;51.030;4.006;2022-11-20T06:48:42;101159.25;;;7.00;71.35
29417;BME280;28421;51.030;4.006;2022-11-20T06:51:08;101158.97;;;7.12;70.93
29417;BME280;28421;51.030;4.006;2022-11-20T06:53:34;101144.19;;;7.08;70.93
29417;BME280;28421;51.030;4.006;2022-11-20T06:56:00;101151.81;;;7.22;70.72
29417;BME280;28421;51.030;4.006;2022-11-20T06:58:27;101154.16;;;7.26;70.82
29417;BME280;28421;51.030;4.006;2022-11-20T07:00:53;101148.94;;;7.34;70.58
29417;BME280;28421;51.030;4.006;2022-11-20T07:03:19;101141.34;;;7.39;70.52
29417;BME280;28421;51.030;4.006;2022-11-20T07:05:44;101139.13;;;7.34;70.63
29417;BME280;28421;51.030;4.006;2022-11-20T07:08:11;101123.50;;;7.20;70.88
29417;BME280;28421;51.030;4.006;2022-11-20T07:10:36;101127.81;;;7.40;70.86
29417;BME280;28421;51.030;4.006;2022-11-20T07:13:02;101127.81;;;7.40;70.19
29417;BME280;28421;51.030;4.006;2022-11-20T07:15:28;101137.09;;;7.46;70.33
29417;BME280;28421;51.030;4.006;2022-11-20T07:17:53;101140.72;;;7.55;70.11
29417;BME280;28421;51.030;4.006;2022-11-20T07:20:18;101138.75;;;7.57;69.92
29417;BME280;28421;51.030;4.006;2022-11-20T07:22:44;101136.38;;;7.63;69.72
29417;BME280;28421;51.030;4.006;2022-11-20T07:25:09;101141.13;;;7.69;69.81
29417;BME280;28421;51.030;4.006;2022-11-20T07:27:35;101135.47;;;7.72;69.66
29417;BME280;28421;51.030;4.006;2022-11-20T07:30:02;101137.44;;;7.70;69.84
29417;BME280;28421;51.030;4.006;2022-11-20T07:32:27;101126.63;;;7.72;69.87
29417;BME280;28421;51.030;4.006;2022-11-20T07:34:53;101128.78;;;7.49;70.47
29417;BME280;28421;51.030;4.006;2022-11-20T07:37:18;101115.97;;;7.53;70.49
29417;BME280;28421;51.030;4.006;2022-11-20T07:39:43;101113.41;;;7.61;70.55
29417;BME280;28421;51.030;4.006;2022-11-20T07:42:09;101111.56;;;7.61;70.42
29417;BME280;28421;51.030;4.006;2022-11-20T07:44:36;101111.22;;;7.74;70.36
29417;BME280;28421;51.030;4.006;2022-11-20T07:47:02;101132.66;;;7.74;70.32
29417;BME280;28421;51.030;4.006;2022-11-20T07:49:27;101128.84;;;7.77;70.52
29417;BME280;28421;51.030;4.006;2022-11-20T07:51:53;101123.88;;;7.44;71.01
29417;BME280;28421;51.030;4.006;2022-11-20T07:54:22;101125.34;;;7.66;70.90
29417;BME280;28421;51.030;4.006;2022-11-20T07:56:48;101126.50;;;7.64;70.96
29417;BME280;28421;51.030;4.006;2022-11-20T07:59:14;101116.13;;;7.79;70.54
29417;BME280;28421;51.030;4.006;2022-11-20T08:01:41;101108.22;;;7.50;71.20
29417;BME280;28421;51.030;4.006;2022-11-20T08:04:06;101117.63;;;7.63;71.05
29417;BME280;28421;51.030;4.006;2022-11-20T08:06:32;101099.97;;;7.70;70.83
29417;BME280;28421;51.030;4.006;2022-11-20T08:08:58;101103.53;;;7.61;71.15
29417;BME280;28421;51.030;4.006;2022-11-20T08:11:23;101108.34;;;7.58;71.41
29417;BME280;28421;51.030;4.006;2022-11-20T08:14:08;101098.63;;;7.57;71.42
29417;BME280;28421;51.030;4.006;2022-11-20T08:16:47;101100.09;;;7.79;71.10
29417;BME280;28421;51.030;4.006;2022-11-20T08:19:14;101096.28;;;7.81;71.31
29417;BME280;28421;51.030;4.006;2022-11-20T08:21:40;101091.50;;;7.75;71.11
29417;BME280;28421;51.030;4.006;2022-11-20T08:24:06;101093.78;;;7.70;71.50
29417;BME280;28421;51.030;4.006;2022-11-20T08:26:33;101100.34;;;7.48;72.31
29417;BME280;28421;51.030;4.006;2022-11-20T08:28:58;101105.88;;;7.74;71.64
29417;BME280;28421;51.030;4.006;2022-11-20T08:31:26;101098.94;;;7.81;71.61
29417;BME280;28421;51.030;4.006;2022-11-20T08:33:52;101096.59;;;7.96;71.29
29417;BME280;28421;51.030;4.006;2022-11-20T08:36:20;101093.31;;;7.84;71.46
29417;BME280;28421;51.030;4.006;2022-11-20T08:38:53;101089.09;;;7.82;71.57
29417;BME280;28421;51.030;4.006;2022-11-20T08:41:19;101084.84;;;7.89;71.45
29417;BME280;28421;51.030;4.006;2022-11-20T08:44:04;101088.28;;;7.99;71.40
29417;BME280;28421;51.030;4.006;2022-11-20T08:46:39;101071.84;;;7.94;71.73
29417;BME280;28421;51.030;4.006;2022-11-20T08:49:10;101078.13;;;8.03;71.46
29417;BME280;28421;51.030;4.006;2022-11-20T08:51:37;101072.47;;;8.06;71.29
29417;BME280;28421;51.030;4.006;2022-11-20T08:54:03;101077.44;;;8.01;71.96
29417;BME280;28421;51.030;4.006;2022-11-20T08:56:29;101072.50;;;7.96;71.96
29417;BME280;28421;51.030;4.006;2022-11-20T08:58:54;101075.91;;;8.16;71.71
29417;BME280;28421;51.030;4.006;2022-11-20T09:01:21;101073.03;;;8.27;71.24
29417;BME280;28421;51.030;4.006;2022-11-20T09:03:47;101070.53;;;8.26;71.25
29417;BME280;28421;51.030;4.006;2022-11-20T09:06:13;101069.53;;;8.27;71.45
29417;BME280;28421;51.030;4.006;2022-11-20T09:08:39;101063.53;;;8.33;71.40
29417;BME280;28421;51.030;4.006;2022-11-20T09:11:05;101060.84;;;8.42;71.13
29417;BME280;28421;51.030;4.006;2022-11-20T09:13:32;101054.66;;;8.32;71.49
29417;BME280;28421;51.030;4.006;2022-11-20T09:16:04;101051.56;;;8.37;71.63
29417;BME280;28421;51.030;4.006;2022-11-20T09:18:30;101044.09;;;8.31;71.79
29417;BME280;28421;51.030;4.006;2022-11-20T09:21:02;101049.59;;;8.39;71.95
29417;BME280;28421;51.030;4.006;2022-11-20T09:23:32;101040.63;;;8.48;71.80
29417;BME280;28421;51.030;4.006;2022-11-20T09:26:01;101035.47;;;8.37;72.07
29417;BME280;28421;51.030;4.006;2022-11-20T09:28:27;101037.47;;;8.53;72.10
29417;BME280;28421;51.030;4.006;2022-11-20T09:30:52;101029.03;;;8.65;71.93
29417;BME280;28421;51.030;4.006;2022-11-20T09:33:17;101025.88;;;8.70;71.77
29417;BME280;28421;51.030;4.006;2022-11-20T09:35:43;101017.00;;;8.69;71.69
29417;BME280;28421;51.030;4.006;2022-11-20T09:38:10;101018.00;;;8.68;71.66
29417;BME280;28421;51.030;4.006;2022-11-20T09:46:07;101001.78;;;8.96;71.48
29417;BME280;28421;51.030;4.006;2022-11-20T09:54:15;100995.53;;;9.13;71.24
29417;BME280;28421;51.030;4.006;2022-11-20T09:56:45;100995.13;;;9.34;71.17
29417;BME280;28421;51.030;4.006;2022-11-20T09:59:33;100976.31;;;9.26;71.20
29417;BME280;28421;51.030;4.006;2022-11-20T10:02:00;100985.44;;;9.41;70.72
29417;BME280;28421;51.030;4.006;2022-11-20T10:04:30;100976.72;;;9.48;70.40
29417;BME280;28421;51.030;4.006;2022-11-20T10:09:40;100926.88;;;9.45;70.66
29417;BME280;28421;51.030;4.006;2022-11-20T10:12:15;100956.84;;;9.83;70.17
29417;BME280;28421;51.030;4.006;2022-11-20T10:14:56;100957.44;;;9.52;70.49
29417;BME280;28421;51.030;4.006;2022-11-20T10:25:39;100944.97;;;9.85;69.81
29417;BME280;28421;51.030;4.006;2022-11-20T10:28:25;100942.53;;;10.25;69.47
29417;BME280;28421;51.030;4.006;2022-11-20T10:30:57;100931.41;;;10.36;69.37
29417;BME280;28421;51.030;4.006;2022-11-20T10:33:27;100922.53;;;10.35;68.53
29417;BME280;28421;51.030;4.006;2022-11-20T10:38:41;100914.13;;;10.30;68.82
29417;BME280;28421;51.030;4.006;2022-11-20T10:41:16;100906.72;;;10.32;68.53
29417;BME280;28421;51.030;4.006;2022-11-20T10:43:56;100906.91;;;10.39;68.08
29417;BME280;28421;51.030;4.006;2022-11-20T10:46:25;100908.75;;;10.38;68.35
29417;BME280;28421;51.030;4.006;2022-11-20T10:48:57;100903.56;;;10.45;68.13
29417;BME280;28421;51.030;4.006;2022-11-20T10:51:43;100895.44;;;10.61;67.83
29417;BME280;28421;51.030;4.006;2022-11-20T10:54:21;100894.16;;;10.33;67.78
29417;BME280;28421;51.030;4.006;2022-11-20T10:56:50;100892.44;;;10.32;68.01
29417;BME280;28421;51.030;4.006;2022-11-20T11:02:01;100880.28;;;10.68;67.82
29417;BME280;28421;51.030;4.006;2022-11-20T11:04:37;100869.69;;;10.75;67.63
29417;BME280;28421;51.030;4.006;2022-11-20T11:07:27;100856.63;;;10.56;67.39
29417;BME280;28421;51.030;4.006;2022-11-20T11:09:56;100868.91;;;10.58;67.59
29417;BME280;28421;51.030;4.006;2022-11-20T11:12:24;100856.91;;;10.77;67.22
29417;BME280;28421;51.030;4.006;2022-11-20T11:14:52;100866.31;;;10.81;66.96
29417;BME280;28421;51.030;4.006;2022-11-20T11:19:59;100848.00;;;10.77;66.95
29417;BME280;28421;51.030;4.006;2022-11-20T11:22:24;100824.78;;;10.84;66.55
29417;BME280;28421;51.030;4.006;2022-11-20T11:24:53;100827.16;;;10.79;66.62
29417;BME280;28421;51.030;4.006;2022-11-20T11:27:19;100817.91;;;10.81;66.63
29417;BME280;28421;51.030;4.006;2022-11-20T11:29:45;100823.22;;;10.50;67.28
29417;BME280;28421;51.030;4.006;2022-11-20T11:34:38;100809.38;;;10.61;66.91
29417;BME280;28421;51.030;4.006;2022-11-20T11:37:04;100803.84;;;10.63;67.42
29417;BME280;28421;51.030;4.006;2022-11-20T11:39:32;100804.56;;;10.49;67.15
29417;BME280;28421;51.030;4.006;2022-11-20T11:42:00;100793.25;;;10.61;67.18
29417;BME280;28421;51.030;4.006;2022-11-20T11:44:32;100799.03;;;10.50;67.26
29417;BME280;28421;51.030;4.006;2022-11-20T11:47:31;100792.94;;;10.56;67.08
29417;BME280;28421;51.030;4.006;2022-11-20T11:55:58;100794.19;;;10.21;67.99
29417;BME280;28421;51.030;4.006;2022-11-20T11:58:45;100784.97;;;10.32;68.01
29417;BME280;28421;51.030;4.006;2022-11-20T12:01:28;100781.66;;;9.97;69.09
29417;BME280;28421;51.030;4.006;2022-11-20T12:04:04;100783.47;;;10.05;69.08
29417;BME280;28421;51.030;4.006;2022-11-20T12:06:36;100781.47;;;9.99;69.67
29417;BME280;28421;51.030;4.006;2022-11-20T12:09:08;100760.47;;;10.02;69.32
29417;BME280;28421;51.030;4.006;2022-11-20T12:11:38;100763.66;;;10.06;69.34
29417;BME280;28421;51.030;4.006;2022-11-20T12:16:40;100731.97;;;9.93;69.66
29417;BME280;28421;51.030;4.006;2022-11-20T12:19:13;100734.13;;;9.98;69.97
29417;BME280;28421;51.030;4.006;2022-11-20T12:24:53;100722.22;;;10.00;70.17
29417;BME280;28421;51.030;4.006;2022-11-20T12:30:11;100714.31;;;9.99;70.46
29417;BME280;28421;51.030;4.006;2022-11-20T12:41:24;100691.00;;;9.91;70.85
29417;BME280;28421;51.030;4.006;2022-11-20T12:49:50;100655.56;;;10.04;71.90
29417;BME280;28421;51.030;4.006;2022-11-20T12:55:09;100655.72;;;10.02;71.74
29417;BME280;28421;51.030;4.006;2022-11-20T12:57:58;100642.97;;;10.04;71.49
29417;BME280;28421;51.030;4.006;2022-11-20T13:00:27;100637.09;;;10.01;71.83
29417;BME280;28421;51.030;4.006;2022-11-20T13:06:01;100614.91;;;10.07;72.57
29417;BME280;28421;51.030;4.006;2022-11-20T13:08:41;100610.38;;;10.07;72.61
29417;BME280;28421;51.030;4.006;2022-11-20T13:11:14;100618.06;;;10.10;72.39
29417;BME280;28421;51.030;4.006;2022-11-20T13:13:51;100603.84;;;10.02;72.63
29417;BME280;28421;51.030;4.006;2022-11-20T13:19:16;100599.50;;;10.01;72.89
29417;BME280;28421;51.030;4.006;2022-11-20T13:21:47;100595.16;;;10.00;73.20
29417;BME280;28421;51.030;4.006;2022-11-20T13:24:26;100594.13;;;10.01;73.19
29417;BME280;28421;51.030;4.006;2022-11-20T13:27:04;100589.94;;;9.98;73.49
29417;BME280;28421;51.030;4.006;2022-11-20T13:29:30;100588.09;;;9.90;73.54
29417;BME280;28421;51.030;4.006;2022-11-20T13:32:11;100583.75;;;9.89;73.51
29417;BME280;28421;51.030;4.006;2022-11-20T13:34:38;100570.28;;;9.98;73.45
29417;BME280;28421;51.030;4.006;2022-11-20T13:37:04;100571.38;;;9.80;73.47
29417;BME280;28421;51.030;4.006;2022-11-20T13:39:35;100570.50;;;9.88;73.82
29417;BME280;28421;51.030;4.006;2022-11-20T13:42:02;100570.47;;;9.96;73.40
29417;BME280;28421;51.030;4.006;2022-11-20T13:44:51;100570.44;;;10.04;73.31
29417;BME280;28421;51.030;4.006;2022-11-20T13:47:25;100556.53;;;10.01;73.41
29417;BME280;28421;51.030;4.006;2022-11-20T13:49:52;100548.00;;;9.89;73.30
29417;BME280;28421;51.030;4.006;2022-11-20T14:00:28;100542.28;;;9.92;73.47
29417;BME280;28421;51.030;4.006;2022-11-20T14:03:01;100529.75;;;9.84;73.55
29417;BME280;28421;51.030;4.006;2022-11-20T14:05:54;100518.88;;;9.69;73.95
29417;BME280;28421;51.030;4.006;2022-11-20T14:08:45;100539.63;;;9.92;73.81
29417;BME280;28421;51.030;4.006;2022-11-20T14:11:20;100526.53;;;9.89;73.79
29417;BME280;28421;51.030;4.006;2022-11-20T14:14:03;100520.88;;;10.07;73.36
29417;BME280;28421;51.030;4.006;2022-11-20T14:16:31;100516.34;;;10.07;73.29
29417;BME280;28421;51.030;4.006;2022-11-20T14:19:29;100519.44;;;9.96;73.94
29417;BME280;28421;51.030;4.006;2022-11-20T14:22:25;100500.31;;;9.91;73.83
29417;BME280;28421;51.030;4.006;2022-11-20T14:27:44;100525.84;;;9.87;74.69
29417;BME280;28421;51.030;4.006;2022-11-20T14:30:19;100516.03;;;10.02;74.31
29417;BME280;28421;51.030;4.006;2022-11-20T14:32:46;100517.84;;;10.10;74.14
29417;BME280;28421;51.030;4.006;2022-11-20T14:35:30;100514.88;;;10.05;74.20
29417;BME280;28421;51.030;4.006;2022-11-20T14:37:59;100513.81;;;10.14;73.91
29417;BME280;28421;51.030;4.006;2022-11-20T14:42:51;100512.78;;;10.15;74.02
29417;BME280;28421;51.030;4.006;2022-11-20T14:45:16;100495.47;;;10.26;73.64
29417;BME280;28421;51.030;4.006;2022-11-20T14:47:43;100497.34;;;10.40;73.14
29417;BME280;28421;51.030;4.006;2022-11-20T14:50:22;100497.78;;;10.52;73.06
29417;BME280;28421;51.030;4.006;2022-11-20T14:52:56;100507.50;;;10.53;73.06
29417;BME280;28421;51.030;4.006;2022-11-20T14:55:35;100504.66;;;10.54;73.22
29417;BME280;28421;51.030;4.006;2022-11-20T14:58:22;100498.72;;;10.36;73.46
29417;BME280;28421;51.030;4.006;2022-11-20T15:01:03;100502.50;;;10.18;74.35
29417;BME280;28421;51.030;4.006;2022-11-20T15:03:37;100498.97;;;10.49;73.69
29417;BME280;28421;51.030;4.006;2022-11-20T15:06:07;100495.00;;;10.45;73.32
29417;BME280;28421;51.030;4.006;2022-11-20T15:08:35;100487.28;;;10.42;73.41
29417;BME280;28421;51.030;4.006;2022-11-20T15:11:01;100492.06;;;10.01;74.44
29417;BME280;28421;51.030;4.006;2022-11-20T15:13:33;100496.59;;;10.31;74.10
29417;BME280;28421;51.030;4.006;2022-11-20T15:16:00;100497.34;;;10.17;74.61
29417;BME280;28421;51.030;4.006;2022-11-20T15:18:29;100488.72;;;10.30;73.84
29417;BME280;28421;51.030;4.006;2022-11-20T15:20:57;100494.41;;;10.04;74.68
29417;BME280;28421;51.030;4.006;2022-11-20T15:23:23;100501.53;;;10.11;74.87
29417;BME280;28421;51.030;4.006;2022-11-20T15:25:49;100505.56;;;10.15;74.63
29417;BME280;28421;51.030;4.006;2022-11-20T15:28:19;100511.56;;;10.26;74.26
29417;BME280;28421;51.030;4.006;2022-11-20T15:30:47;100510.31;;;10.05;74.41
29417;BME280;28421;51.030;4.006;2022-11-20T15:33:13;100506.66;;;9.98;74.60
29417;BME280;28421;51.030;4.006;2022-11-20T15:35:39;100519.16;;;10.14;74.18
29417;BME280;28421;51.030;4.006;2022-11-20T15:38:04;100512.25;;;10.19;74.02
29417;BME280;28421;51.030;4.006;2022-11-20T15:40:30;100518.63;;;10.27;73.98
29417;BME280;28421;51.030;4.006;2022-11-20T15:42:56;100511.69;;;10.24;73.33
29417;BME280;28421;51.030;4.006;2022-11-20T15:45:44;100513.75;;;10.22;72.88
29417;BME280;28421;51.030;4.006;2022-11-20T15:48:20;100524.31;;;10.24;72.47
29417;BME280;28421;51.030;4.006;2022-11-20T15:50:50;100535.28;;;10.14;72.49
29417;BME280;28421;51.030;4.006;2022-11-20T15:53:18;100529.09;;;10.13;72.14
29417;BME280;28421;51.030;4.006;2022-11-20T15:55:43;100532.38;;;10.24;71.84
29417;BME280;28421;51.030;4.006;2022-11-20T15:58:09;100529.56;;;10.25;71.91
29417;BME280;28421;51.030;4.006;2022-11-20T16:00:34;100545.00;;;10.15;71.80
29417;BME280;28421;51.030;4.006;2022-11-20T16:03:00;100525.13;;;10.01;72.36
29417;BME280;28421;51.030;4.006;2022-11-20T16:05:29;100525.03;;;10.17;71.91
29417;BME280;28421;51.030;4.006;2022-11-20T16:07:54;100538.38;;;10.03;72.17
29417;BME280;28421;51.030;4.006;2022-11-20T16:10:20;100524.81;;;9.96;72.21
29417;BME280;28421;51.030;4.006;2022-11-20T16:12:45;100534.84;;;10.02;71.95
29417;BME280;28421;51.030;4.006;2022-11-20T16:15:29;100538.50;;;10.09;71.36
29417;BME280;28421;51.030;4.006;2022-11-20T16:18:11;100545.09;;;9.99;71.71
29417;BME280;28421;51.030;4.006;2022-11-20T16:20:37;100558.94;;;9.87;71.93
29417;BME280;28421;51.030;4.006;2022-11-20T16:23:03;100555.34;;;9.95;71.37
29417;BME280;28421;51.030;4.006;2022-11-20T16:25:28;100553.22;;;9.82;71.64
29417;BME280;28421;51.030;4.006;2022-11-20T16:27:54;100568.06;;;9.62;72.13
29417;BME280;28421;51.030;4.006;2022-11-20T16:30:19;100563.75;;;9.53;71.49
29417;BME280;28421;51.030;4.006;2022-11-20T16:32:45;100565.72;;;9.67;70.65
29417;BME280;28421;51.030;4.006;2022-11-20T16:35:10;100574.56;;;9.84;70.39
29417;BME280;28421;51.030;4.006;2022-11-20T16:37:35;100566.31;;;9.85;69.90
29417;BME280;28421;51.030;4.006;2022-11-20T16:40:01;100576.63;;;9.65;68.96
29417;BME280;28421;51.030;4.006;2022-11-20T16:42:26;100569.03;;;9.77;68.51
29417;BME280;28421;51.030;4.006;2022-11-20T16:44:51;100577.94;;;9.69;69.00
29417;BME280;28421;51.030;4.006;2022-11-20T16:47:17;100590.38;;;9.70;69.56
29417;BME280;28421;51.030;4.006;2022-11-20T16:49:42;100602.16;;;9.53;70.37
29417;BME280;28421;51.030;4.006;2022-11-20T16:52:07;100604.00;;;9.53;71.38
29417;BME280;28421;51.030;4.006;2022-11-20T16:54:33;100612.44;;;9.41;72.46
29417;BME280;28421;51.030;4.006;2022-11-20T16:56:58;100614.44;;;9.31;73.59
29417;BME280;28421;51.030;4.006;2022-11-20T16:59:24;100595.31;;;9.34;74.21
29417;BME280;28421;51.030;4.006;2022-11-20T17:01:49;100586.97;;;9.29;73.42
29417;BME280;28421;51.030;4.006;2022-11-20T17:04:16;100575.72;;;9.26;73.42
29417;BME280;28421;51.030;4.006;2022-11-20T17:06:42;100586.16;;;9.04;73.00
29417;BME280;28421;51.030;4.006;2022-11-20T17:09:12;100602.69;;;9.24;73.35
29417;BME280;28421;51.030;4.006;2022-11-20T17:11:38;100592.69;;;9.02;73.98
29417;BME280;28421;51.030;4.006;2022-11-20T17:14:04;100569.19;;;8.87;73.26
29417;BME280;28421;51.030;4.006;2022-11-20T17:16:34;100588.97;;;9.03;73.06
29417;BME280;28421;51.030;4.006;2022-11-20T17:19:00;100600.03;;;8.91;73.63
29417;BME280;28421;51.030;4.006;2022-11-20T17:21:27;100603.22;;;9.03;74.05
29417;BME280;28421;51.030;4.006;2022-11-20T17:23:54;100603.72;;;9.15;74.43
29417;BME280;28421;51.030;4.006;2022-11-20T17:26:21;100588.84;;;9.04;75.26
29417;BME280;28421;51.030;4.006;2022-11-20T17:29:02;100586.47;;;9.09;74.70
29417;BME280;28421;51.030;4.006;2022-11-20T17:31:30;100594.16;;;9.20;73.70
29417;BME280;28421;51.030;4.006;2022-11-20T17:33:55;100585.25;;;9.28;73.40
29417;BME280;28421;51.030;4.006;2022-11-20T17:36:23;100579.06;;;9.19;73.41
29417;BME280;28421;51.030;4.006;2022-11-20T17:38:48;100597.16;;;9.42;73.30
29417;BME280;28421;51.030;4.006;2022-11-20T17:41:19;100599.84;;;9.42;73.51
29417;BME280;28421;51.030;4.006;2022-11-20T17:43:47;100589.47;;;9.31;74.17
29417;BME280;28421;51.030;4.006;2022-11-20T17:46:17;100590.13;;;9.33;74.25
29417;BME280;28421;51.030;4.006;2022-11-20T17:48:44;100599.19;;;9.24;74.23
29417;BME280;28421;51.030;4.006;2022-11-20T17:51:11;100597.84;;;9.19;74.26
29417;BME280;28421;51.030;4.006;2022-11-20T17:53:39;100602.56;;;9.17;74.61
29417;BME280;28421;51.030;4.006;2022-11-20T17:56:05;100595.50;;;9.16;74.71
29417;BME280;28421;51.030;4.006;2022-11-20T17:58:50;100604.88;;;9.20;74.66
29417;BME280;28421;51.030;4.006;2022-11-20T18:01:15;100600.84;;;9.25;74.84
29417;BME280;28421;51.030;4.006;2022-11-20T18:03:41;100602.53;;;9.42;74.42
29417;BME280;28421;51.030;4.006;2022-11-20T18:06:12;100594.84;;;9.23;74.75
29417;BME280;28421;51.030;4.006;2022-11-20T18:08:38;100593.81;;;9.40;74.29
29417;BME280;28421;51.030;4.006;2022-11-20T18:11:19;100601.84;;;9.32;74.43
29417;BME280;28421;51.030;4.006;2022-11-20T18:13:48;100591.09;;;9.48;74.37
29417;BME280;28421;51.030;4.006;2022-11-20T18:16:35;100604.19;;;9.43;74.70
29417;BME280;28421;51.030;4.006;2022-11-20T18:19:02;100613.59;;;9.47;74.46
29417;BME280;28421;51.030;4.006;2022-11-20T18:21:29;100606.69;;;9.53;74.00
29417;BME280;28421;51.030;4.006;2022-11-20T18:23:56;100608.56;;;9.44;74.44
29417;BME280;28421;51.030;4.006;2022-11-20T18:26:22;100609.06;;;9.39;74.47
29417;BME280;28421;51.030;4.006;2022-11-20T18:28:48;100613.28;;;9.26;74.82
29417;BME280;28421;51.030;4.006;2022-11-20T18:31:14;100622.31;;;9.33;74.63
29417;BME280;28421;51.030;4.006;2022-11-20T18:33:39;100606.56;;;9.38;74.13
29417;BME280;28421;51.030;4.006;2022-11-20T18:36:13;100600.38;;;9.21;74.29
29417;BME280;28421;51.030;4.006;2022-11-20T18:38:40;100610.94;;;9.23;73.98
29417;BME280;28421;51.030;4.006;2022-11-20T18:41:10;100600.53;;;9.19;74.06
29417;BME280;28421;51.030;4.006;2022-11-20T18:43:56;100601.88;;;9.24;74.22
29417;BME280;28421;51.030;4.006;2022-11-20T18:46:40;100604.22;;;9.18;73.87
29417;BME280;28421;51.030;4.006;2022-11-20T18:49:07;100613.28;;;9.26;74.31
29417;BME280;28421;51.030;4.006;2022-11-20T18:51:32;100602.25;;;9.12;74.39
29417;BME280;28421;51.030;4.006;2022-11-20T18:53:57;100608.91;;;9.25;74.11
29417;BME280;28421;51.030;4.006;2022-11-20T18:56:23;100611.78;;;9.15;73.80
29417;BME280;28421;51.030;4.006;2022-11-20T18:58:48;100606.91;;;9.18;73.83
29417;BME280;28421;51.030;4.006;2022-11-20T19:01:14;100603.91;;;9.21;73.51
29417;BME280;28421;51.030;4.006;2022-11-20T19:03:39;100610.75;;;9.24;73.41
29417;BME280;28421;51.030;4.006;2022-11-20T19:06:04;100604.56;;;9.15;73.73
29417;BME280;28421;51.030;4.006;2022-11-20T19:08:33;100604.56;;;9.15;73.67
29417;BME280;28421;51.030;4.006;2022-11-20T19:11:10;100610.25;;;9.29;73.53
29417;BME280;28421;51.030;4.006;2022-11-20T19:13:36;100598.88;;;9.18;73.57
29417;BME280;28421;51.030;4.006;2022-11-20T19:16:03;100604.75;;;9.14;73.61
29417;BME280;28421;51.030;4.006;2022-11-20T19:18:29;100616.97;;;9.16;74.03
29417;BME280;28421;51.030;4.006;2022-11-20T19:20:54;100614.28;;;9.25;73.67
29417;BME280;28421;51.030;4.006;2022-11-20T19:23:20;100628.69;;;9.24;73.61
29417;BME280;28421;51.030;4.006;2022-11-20T19:25:47;100628.88;;;9.30;73.73
29417;BME280;28421;51.030;4.006;2022-11-20T19:28:12;100621.97;;;9.28;73.79
29417;BME280;28421;51.030;4.006;2022-11-20T19:30:39;100624.53;;;9.29;73.60
29417;BME280;28421;51.030;4.006;2022-11-20T19:33:06;100612.97;;;9.12;73.91
29417;BME280;28421;51.030;4.006;2022-11-20T19:35:31;100632.22;;;9.24;73.69
29417;BME280;28421;51.030;4.006;2022-11-20T19:37:57;100629.53;;;9.32;73.39
29417;BME280;28421;51.030;4.006;2022-11-20T19:40:22;100628.03;;;9.21;73.15
29417;BME280;28421;51.030;4.006;2022-11-20T19:42:48;100629.38;;;9.26;72.78
29417;BME280;28421;51.030;4.006;2022-11-20T19:45:13;100633.06;;;9.16;72.55
29417;BME280;28421;51.030;4.006;2022-11-20T19:47:39;100639.59;;;9.22;72.66
29417;BME280;28421;51.030;4.006;2022-11-20T19:50:04;100625.34;;;8.97;72.85
29417;BME280;28421;51.030;4.006;2022-11-20T19:52:30;100643.44;;;9.03;72.68
29417;BME280;28421;51.030;4.006;2022-11-20T19:54:55;100640.94;;;8.85;72.91
29417;BME280;28421;51.030;4.006;2022-11-20T19:57:21;100648.66;;;9.05;72.21
29417;BME280;28421;51.030;4.006;2022-11-20T19:59:46;100644.63;;;8.92;72.37
29417;BME280;28421;51.030;4.006;2022-11-20T20:02:11;100654.34;;;8.85;72.80
29417;BME280;28421;51.030;4.006;2022-11-20T20:04:37;100643.94;;;8.90;72.64
29417;BME280;28421;51.030;4.006;2022-11-20T20:07:02;100663.19;;;8.78;72.64
29417;BME280;28421;51.030;4.006;2022-11-20T20:09:28;100661.53;;;8.77;72.50
29417;BME280;28421;51.030;4.006;2022-11-20T20:11:54;100658.19;;;8.83;72.10
29417;BME280;28421;51.030;4.006;2022-11-20T20:14:20;100658.34;;;8.81;72.46
29417;BME280;28421;51.030;4.006;2022-11-20T20:16:46;100662.31;;;8.61;71.99
29417;BME280;28421;51.030;4.006;2022-11-20T20:19:13;100663.72;;;8.81;72.05
29417;BME280;28421;51.030;4.006;2022-11-20T20:21:39;100663.84;;;8.63;71.97
29417;BME280;28421;51.030;4.006;2022-11-20T20:24:05;100650.81;;;8.85;71.67
29417;BME280;28421;51.030;4.006;2022-11-20T20:26:32;100654.75;;;8.48;72.21
29417;BME280;28421;51.030;4.006;2022-11-20T20:28:58;100659.66;;;8.69;71.88
29417;BME280;28421;51.030;4.006;2022-11-20T20:31:26;100659.00;;;8.67;71.86
29417;BME280;28421;51.030;4.006;2022-11-20T20:33:52;100665.19;;;8.59;71.59